sensor_id;sensor_type;location;lat;lon;timestamp;P1;durP1;ratioP1;P2;durP2;ratioP2
78410;SDS011;67706;51.074;-1.796;2023-10-31T00:02:57;10.63;;;4.47;;
78410;SDS011;67706;51.074;-1.796;2023-10-31T00:07:52;5.65;;;3.13;;
78410;SDS011;67706;51.074;-1.796;2023-10-31T00:10:18;4.72;;;2.35;;
78410;SDS011;67706;51.074;-1.796;2023-10-31T00:12:45;6.80;;;3.10;;
78410;SDS011;67706;51.074;-1.796;2023-10-31T00:15:12;6.60;;;3.15;;
78410;SDS011;67706;51.074;-1.796;2023-10-31T00:17:38;3.42;;;1.73;;
78410;SDS011;67706;51.074;-1.796;2023-10-31T00:20:05;4.30;;;2.30;;
78410;SDS011;67706;51.074;-1.796;2023-10-31T00:22:33;7.50;;;3.33;;
78410;SDS011;67706;51.074;-1.796;2023-10-31T00:27:27;4.35;;;1.83;;
78410;SDS011;67706;51.074;-1.796;2023-10-31T00:29:54;4.32;;;2.75;;
78410;SDS011;67706;51.074;-1.796;2023-10-31T00:34:47;6.90;;;2.90;;
78410;SDS011;67706;51.074;-1.796;2023-10-31T00:37:14;6.35;;;3.33;;
78410;SDS011;67706;51.074;-1.796;2023-10-31T00:39:40;7.95;;;3.53;;
78410;SDS011;67706;51.074;-1.796;2023-10-31T00:42:08;5.15;;;2.65;;
78410;SDS011;67706;51.074;-1.796;2023-10-31T00:44:35;7.43;;;3.30;;
78410;SDS011;67706;51.074;-1.796;2023-10-31T00:47:02;8.40;;;3.38;;
78410;SDS011;67706;51.074;-1.796;2023-10-31T00:49:30;8.48;;;3.22;;
78410;SDS011;67706;51.074;-1.796;2023-10-31T00:51:57;7.22;;;3.20;;
78410;SDS011;67706;51.074;-1.796;2023-10-31T00:54:23;9.00;;;3.50;;
78410;SDS011;67706;51.074;-1.796;2023-10-31T00:56:50;7.65;;;3.42;;
78410;SDS011;67706;51.074;-1.796;2023-10-31T00:59:18;7.20;;;3.45;;
78410;SDS011;67706;51.074;-1.796;2023-10-31T01:01:45;6.65;;;2.90;;
78410;SDS011;67706;51.074;-1.796;2023-10-31T01:04:11;8.05;;;3.50;;
78410;SDS011;67706;51.074;-1.796;2023-10-31T01:06:40;7.18;;;3.58;;
78410;SDS011;67706;51.074;-1.796;2023-10-31T01:09:07;8.20;;;3.53;;
78410;SDS011;67706;51.074;-1.796;2023-10-31T01:11:34;9.80;;;3.58;;
78410;SDS011;67706;51.074;-1.796;2023-10-31T01:14:01;8.43;;;3.33;;
78410;SDS011;67706;51.074;-1.796;2023-10-31T01:16:29;5.47;;;2.78;;
78410;SDS011;67706;51.074;-1.796;2023-10-31T01:18:55;7.22;;;3.20;;
78410;SDS011;67706;51.074;-1.796;2023-10-31T01:21:22;6.10;;;3.00;;
78410;SDS011;67706;51.074;-1.796;2023-10-31T01:26:15;5.80;;;2.70;;
78410;SDS011;67706;51.074;-1.796;2023-10-31T01:28:42;7.95;;;3.08;;
78410;SDS011;67706;51.074;-1.796;2023-10-31T01:33:36;7.03;;;2.90;;
78410;SDS011;67706;51.074;-1.796;2023-10-31T01:36:03;6.00;;;3.22;;
78410;SDS011;67706;51.074;-1.796;2023-10-31T01:38:30;6.20;;;3.17;;
78410;SDS011;67706;51.074;-1.796;2023-10-31T01:43:30;7.80;;;3.00;;
78410;SDS011;67706;51.074;-1.796;2023-10-31T01:45:57;7.60;;;3.53;;
78410;SDS011;67706;51.074;-1.796;2023-10-31T01:48:24;8.70;;;3.72;;
78410;SDS011;67706;51.074;-1.796;2023-10-31T01:50:55;7.45;;;3.30;;
78410;SDS011;67706;51.074;-1.796;2023-10-31T01:53:22;7.07;;;3.28;;
78410;SDS011;67706;51.074;-1.796;2023-10-31T01:55:50;7.85;;;3.53;;
78410;SDS011;67706;51.074;-1.796;2023-10-31T01:58:19;8.52;;;4.03;;
78410;SDS011;67706;51.074;-1.796;2023-10-31T02:00:49;8.35;;;3.90;;
78410;SDS011;67706;51.074;-1.796;2023-10-31T02:03:17;9.95;;;4.85;;
78410;SDS011;67706;51.074;-1.796;2023-10-31T02:05:44;12.15;;;5.20;;
78410;SDS011;67706;51.074;-1.796;2023-10-31T02:08:13;10.77;;;4.93;;
78410;SDS011;67706;51.074;-1.796;2023-10-31T02:10:40;7.47;;;4.25;;
78410;SDS011;67706;51.074;-1.796;2023-10-31T02:15:36;6.53;;;3.50;;
78410;SDS011;67706;51.074;-1.796;2023-10-31T02:18:03;6.97;;;3.60;;
78410;SDS011;67706;51.074;-1.796;2023-10-31T02:20:30;10.98;;;3.72;;
78410;SDS011;67706;51.074;-1.796;2023-10-31T02:22:58;9.15;;;4.28;;
78410;SDS011;67706;51.074;-1.796;2023-10-31T02:25:25;8.57;;;3.33;;
78410;SDS011;67706;51.074;-1.796;2023-10-31T02:27:52;8.60;;;3.63;;
78410;SDS011;67706;51.074;-1.796;2023-10-31T02:30:18;7.30;;;3.13;;
78410;SDS011;67706;51.074;-1.796;2023-10-31T02:32:45;8.32;;;3.50;;
78410;SDS011;67706;51.074;-1.796;2023-10-31T02:35:12;7.75;;;3.40;;
78410;SDS011;67706;51.074;-1.796;2023-10-31T02:37:39;9.35;;;4.07;;
78410;SDS011;67706;51.074;-1.796;2023-10-31T02:40:08;7.10;;;3.38;;
78410;SDS011;67706;51.074;-1.796;2023-10-31T02:42:35;6.03;;;3.00;;
78410;SDS011;67706;51.074;-1.796;2023-10-31T02:45:02;8.65;;;3.40;;
78410;SDS011;67706;51.074;-1.796;2023-10-31T02:47:29;8.73;;;3.70;;
78410;SDS011;67706;51.074;-1.796;2023-10-31T02:49:56;5.82;;;3.05;;
78410;SDS011;67706;51.074;-1.796;2023-10-31T02:52:23;7.43;;;3.35;;
78410;SDS011;67706;51.074;-1.796;2023-10-31T02:54:49;8.38;;;3.78;;
78410;SDS011;67706;51.074;-1.796;2023-10-31T02:57:17;7.82;;;4.18;;
78410;SDS011;67706;51.074;-1.796;2023-10-31T02:59:44;10.75;;;4.13;;
78410;SDS011;67706;51.074;-1.796;2023-10-31T03:02:11;8.65;;;3.97;;
78410;SDS011;67706;51.074;-1.796;2023-10-31T03:04:38;7.75;;;3.50;;
78410;SDS011;67706;51.074;-1.796;2023-10-31T03:07:04;8.25;;;3.20;;
78410;SDS011;67706;51.074;-1.796;2023-10-31T03:09:31;8.57;;;3.97;;
78410;SDS011;67706;51.074;-1.796;2023-10-31T03:11:58;7.68;;;3.90;;
78410;SDS011;67706;51.074;-1.796;2023-10-31T03:14:26;8.10;;;3.58;;
78410;SDS011;67706;51.074;-1.796;2023-10-31T03:16:53;8.85;;;3.38;;
78410;SDS011;67706;51.074;-1.796;2023-10-31T03:21:46;7.07;;;3.28;;
78410;SDS011;67706;51.074;-1.796;2023-10-31T03:24:12;11.00;;;3.80;;
78410;SDS011;67706;51.074;-1.796;2023-10-31T03:26:40;7.80;;;3.40;;
78410;SDS011;67706;51.074;-1.796;2023-10-31T03:29:06;10.82;;;4.07;;
78410;SDS011;67706;51.074;-1.796;2023-10-31T03:31:34;9.35;;;4.18;;
78410;SDS011;67706;51.074;-1.796;2023-10-31T03:34:01;5.88;;;3.38;;
78410;SDS011;67706;51.074;-1.796;2023-10-31T03:36:28;8.20;;;3.90;;
78410;SDS011;67706;51.074;-1.796;2023-10-31T03:38:55;8.23;;;3.72;;
78410;SDS011;67706;51.074;-1.796;2023-10-31T03:41:22;9.50;;;3.30;;
78410;SDS011;67706;51.074;-1.796;2023-10-31T03:43:49;11.77;;;4.20;;
78410;SDS011;67706;51.074;-1.796;2023-10-31T03:46:15;8.55;;;4.25;;
78410;SDS011;67706;51.074;-1.796;2023-10-31T03:48:43;9.52;;;3.72;;
78410;SDS011;67706;51.074;-1.796;2023-10-31T03:51:10;11.68;;;3.97;;
78410;SDS011;67706;51.074;-1.796;2023-10-31T03:53:36;8.82;;;3.47;;
78410;SDS011;67706;51.074;-1.796;2023-10-31T03:56:03;10.82;;;4.65;;
78410;SDS011;67706;51.074;-1.796;2023-10-31T03:58:30;9.40;;;3.50;;
78410;SDS011;67706;51.074;-1.796;2023-10-31T04:00:57;10.65;;;4.03;;
78410;SDS011;67706;51.074;-1.796;2023-10-31T04:03:24;8.18;;;3.70;;
78410;SDS011;67706;51.074;-1.796;2023-10-31T04:05:52;8.27;;;3.40;;
78410;SDS011;67706;51.074;-1.796;2023-10-31T04:08:19;7.75;;;3.50;;
78410;SDS011;67706;51.074;-1.796;2023-10-31T04:10:46;6.05;;;3.45;;
78410;SDS011;67706;51.074;-1.796;2023-10-31T04:13:12;9.35;;;3.70;;
78410;SDS011;67706;51.074;-1.796;2023-10-31T04:15:39;6.80;;;3.10;;
78410;SDS011;67706;51.074;-1.796;2023-10-31T04:18:06;9.27;;;3.65;;
78410;SDS011;67706;51.074;-1.796;2023-10-31T04:20:32;7.25;;;3.35;;
78410;SDS011;67706;51.074;-1.796;2023-10-31T04:23:00;7.82;;;3.17;;
78410;SDS011;67706;51.074;-1.796;2023-10-31T04:25:27;6.78;;;2.97;;
78410;SDS011;67706;51.074;-1.796;2023-10-31T04:27:54;5.88;;;3.10;;
78410;SDS011;67706;51.074;-1.796;2023-10-31T04:30:21;5.35;;;2.38;;
78410;SDS011;67706;51.074;-1.796;2023-10-31T04:32:48;9.30;;;2.88;;
78410;SDS011;67706;51.074;-1.796;2023-10-31T04:35:14;6.43;;;2.45;;
78410;SDS011;67706;51.074;-1.796;2023-10-31T04:37:41;6.50;;;2.30;;
78410;SDS011;67706;51.074;-1.796;2023-10-31T04:40:10;6.13;;;2.28;;
78410;SDS011;67706;51.074;-1.796;2023-10-31T04:42:38;4.57;;;1.92;;
78410;SDS011;67706;51.074;-1.796;2023-10-31T04:45:05;4.13;;;2.17;;
78410;SDS011;67706;51.074;-1.796;2023-10-31T04:47:33;3.30;;;1.83;;
78410;SDS011;67706;51.074;-1.796;2023-10-31T04:50:00;4.15;;;1.73;;
78410;SDS011;67706;51.074;-1.796;2023-10-31T04:52:26;3.63;;;1.85;;
78410;SDS011;67706;51.074;-1.796;2023-10-31T04:57:21;4.63;;;2.10;;
78410;SDS011;67706;51.074;-1.796;2023-10-31T04:59:48;3.15;;;1.88;;
78410;SDS011;67706;51.074;-1.796;2023-10-31T05:02:14;3.45;;;1.90;;
78410;SDS011;67706;51.074;-1.796;2023-10-31T05:04:41;4.03;;;1.95;;
78410;SDS011;67706;51.074;-1.796;2023-10-31T05:07:08;5.97;;;2.20;;
78410;SDS011;67706;51.074;-1.796;2023-10-31T05:09:35;5.65;;;2.63;;
78410;SDS011;67706;51.074;-1.796;2023-10-31T05:12:02;4.85;;;2.33;;
78410;SDS011;67706;51.074;-1.796;2023-10-31T05:14:30;3.75;;;2.20;;
78410;SDS011;67706;51.074;-1.796;2023-10-31T05:16:57;7.00;;;2.05;;
78410;SDS011;67706;51.074;-1.796;2023-10-31T05:19:23;4.75;;;2.00;;
78410;SDS011;67706;51.074;-1.796;2023-10-31T05:21:50;3.42;;;1.85;;
78410;SDS011;67706;51.074;-1.796;2023-10-31T05:24:17;3.85;;;1.80;;
78410;SDS011;67706;51.074;-1.796;2023-10-31T05:26:44;3.67;;;2.05;;
78410;SDS011;67706;51.074;-1.796;2023-10-31T05:29:11;4.15;;;1.98;;
78410;SDS011;67706;51.074;-1.796;2023-10-31T05:31:39;2.88;;;1.70;;
78410;SDS011;67706;51.074;-1.796;2023-10-31T05:34:08;5.43;;;2.10;;
78410;SDS011;67706;51.074;-1.796;2023-10-31T05:36:35;3.20;;;1.75;;
78410;SDS011;67706;51.074;-1.796;2023-10-31T05:39:01;4.63;;;2.05;;
78410;SDS011;67706;51.074;-1.796;2023-10-31T05:41:28;5.55;;;2.40;;
78410;SDS011;67706;51.074;-1.796;2023-10-31T05:43:55;6.32;;;2.40;;
78410;SDS011;67706;51.074;-1.796;2023-10-31T05:46:21;6.03;;;2.10;;
78410;SDS011;67706;51.074;-1.796;2023-10-31T05:48:49;3.90;;;2.40;;
78410;SDS011;67706;51.074;-1.796;2023-10-31T05:51:16;4.95;;;2.40;;
78410;SDS011;67706;51.074;-1.796;2023-10-31T05:53:45;4.90;;;2.60;;
78410;SDS011;67706;51.074;-1.796;2023-10-31T05:56:13;3.72;;;1.98;;
78410;SDS011;67706;51.074;-1.796;2023-10-31T05:58:41;2.80;;;1.90;;
78410;SDS011;67706;51.074;-1.796;2023-10-31T06:01:08;3.50;;;2.15;;
78410;SDS011;67706;51.074;-1.796;2023-10-31T06:03:35;3.38;;;1.83;;
78410;SDS011;67706;51.074;-1.796;2023-10-31T06:06:03;4.15;;;1.65;;
78410;SDS011;67706;51.074;-1.796;2023-10-31T06:08:30;3.45;;;1.63;;
78410;SDS011;67706;51.074;-1.796;2023-10-31T06:10:57;4.07;;;1.98;;
78410;SDS011;67706;51.074;-1.796;2023-10-31T06:13:25;3.70;;;1.90;;
78410;SDS011;67706;51.074;-1.796;2023-10-31T06:15:52;4.22;;;2.05;;
78410;SDS011;67706;51.074;-1.796;2023-10-31T06:18:20;5.30;;;1.90;;
78410;SDS011;67706;51.074;-1.796;2023-10-31T06:20:46;4.18;;;2.30;;
78410;SDS011;67706;51.074;-1.796;2023-10-31T06:23:14;4.93;;;2.50;;
78410;SDS011;67706;51.074;-1.796;2023-10-31T06:25:41;4.38;;;2.30;;
78410;SDS011;67706;51.074;-1.796;2023-10-31T06:28:08;5.10;;;2.38;;
78410;SDS011;67706;51.074;-1.796;2023-10-31T06:30:34;5.78;;;2.42;;
78410;SDS011;67706;51.074;-1.796;2023-10-31T06:33:01;3.40;;;2.13;;
78410;SDS011;67706;51.074;-1.796;2023-10-31T06:35:28;3.88;;;2.03;;
78410;SDS011;67706;51.074;-1.796;2023-10-31T06:37:55;4.22;;;2.00;;
78410;SDS011;67706;51.074;-1.796;2023-10-31T06:40:24;4.30;;;2.15;;
78410;SDS011;67706;51.074;-1.796;2023-10-31T06:42:51;4.63;;;2.33;;
78410;SDS011;67706;51.074;-1.796;2023-10-31T06:45:18;4.95;;;2.58;;
78410;SDS011;67706;51.074;-1.796;2023-10-31T06:47:45;5.47;;;2.33;;
78410;SDS011;67706;51.074;-1.796;2023-10-31T06:52:38;4.50;;;2.30;;
78410;SDS011;67706;51.074;-1.796;2023-10-31T06:55:05;6.93;;;2.50;;
78410;SDS011;67706;51.074;-1.796;2023-10-31T06:57:33;5.60;;;2.20;;
78410;SDS011;67706;51.074;-1.796;2023-10-31T07:00:00;6.32;;;2.75;;
78410;SDS011;67706;51.074;-1.796;2023-10-31T07:02:28;6.30;;;3.55;;
78410;SDS011;67706;51.074;-1.796;2023-10-31T07:04:55;4.85;;;2.75;;
78410;SDS011;67706;51.074;-1.796;2023-10-31T07:07:21;6.85;;;3.22;;
78410;SDS011;67706;51.074;-1.796;2023-10-31T07:09:48;5.88;;;3.22;;
78410;SDS011;67706;51.074;-1.796;2023-10-31T07:12:15;5.60;;;2.67;;
78410;SDS011;67706;51.074;-1.796;2023-10-31T07:17:09;9.13;;;2.65;;
78410;SDS011;67706;51.074;-1.796;2023-10-31T07:19:36;5.95;;;2.25;;
78410;SDS011;67706;51.074;-1.796;2023-10-31T07:24:29;6.13;;;2.25;;
78410;SDS011;67706;51.074;-1.796;2023-10-31T07:26:56;7.45;;;2.55;;
78410;SDS011;67706;51.074;-1.796;2023-10-31T07:29:22;7.55;;;3.13;;
78410;SDS011;67706;51.074;-1.796;2023-10-31T07:31:50;6.90;;;3.35;;
78410;SDS011;67706;51.074;-1.796;2023-10-31T07:34:17;6.95;;;3.25;;
78410;SDS011;67706;51.074;-1.796;2023-10-31T07:36:44;6.93;;;3.03;;
78410;SDS011;67706;51.074;-1.796;2023-10-31T07:39:11;7.07;;;3.00;;
78410;SDS011;67706;51.074;-1.796;2023-10-31T07:41:39;8.77;;;2.38;;
78410;SDS011;67706;51.074;-1.796;2023-10-31T07:44:06;5.43;;;2.70;;
78410;SDS011;67706;51.074;-1.796;2023-10-31T07:46:32;4.63;;;2.03;;
78410;SDS011;67706;51.074;-1.796;2023-10-31T07:49:01;5.85;;;2.15;;
78410;SDS011;67706;51.074;-1.796;2023-10-31T07:51:27;5.00;;;2.22;;
78410;SDS011;67706;51.074;-1.796;2023-10-31T07:53:54;5.72;;;2.28;;
78410;SDS011;67706;51.074;-1.796;2023-10-31T07:56:23;5.72;;;2.17;;
78410;SDS011;67706;51.074;-1.796;2023-10-31T07:58:50;5.82;;;2.55;;
78410;SDS011;67706;51.074;-1.796;2023-10-31T08:01:18;8.88;;;2.67;;
78410;SDS011;67706;51.074;-1.796;2023-10-31T08:03:45;13.25;;;2.72;;
78410;SDS011;67706;51.074;-1.796;2023-10-31T08:06:13;10.48;;;2.40;;
78410;SDS011;67706;51.074;-1.796;2023-10-31T08:08:40;12.63;;;2.53;;
78410;SDS011;67706;51.074;-1.796;2023-10-31T08:11:07;7.13;;;1.75;;
78410;SDS011;67706;51.074;-1.796;2023-10-31T08:13:34;5.10;;;1.73;;
78410;SDS011;67706;51.074;-1.796;2023-10-31T08:16:02;6.43;;;1.98;;
78410;SDS011;67706;51.074;-1.796;2023-10-31T08:18:29;5.70;;;1.88;;
78410;SDS011;67706;51.074;-1.796;2023-10-31T08:20:56;4.47;;;2.17;;
78410;SDS011;67706;51.074;-1.796;2023-10-31T08:23:24;3.70;;;1.70;;
78410;SDS011;67706;51.074;-1.796;2023-10-31T08:25:51;3.85;;;1.23;;
78410;SDS011;67706;51.074;-1.796;2023-10-31T08:28:18;3.22;;;1.42;;
78410;SDS011;67706;51.074;-1.796;2023-10-31T08:30:45;3.15;;;1.63;;
78410;SDS011;67706;51.074;-1.796;2023-10-31T08:33:12;3.60;;;1.58;;
78410;SDS011;67706;51.074;-1.796;2023-10-31T08:35:39;4.07;;;1.50;;
78410;SDS011;67706;51.074;-1.796;2023-10-31T08:38:06;4.68;;;1.85;;
78410;SDS011;67706;51.074;-1.796;2023-10-31T08:40:34;5.07;;;1.77;;
78410;SDS011;67706;51.074;-1.796;2023-10-31T08:43:01;5.88;;;1.70;;
78410;SDS011;67706;51.074;-1.796;2023-10-31T08:45:29;4.18;;;1.83;;
78410;SDS011;67706;51.074;-1.796;2023-10-31T08:47:56;4.25;;;1.45;;
78410;SDS011;67706;51.074;-1.796;2023-10-31T08:50:22;3.30;;;1.52;;
78410;SDS011;67706;51.074;-1.796;2023-10-31T08:52:49;2.58;;;1.20;;
78410;SDS011;67706;51.074;-1.796;2023-10-31T08:55:16;1.90;;;1.25;;
78410;SDS011;67706;51.074;-1.796;2023-10-31T08:57:44;4.60;;;1.42;;
78410;SDS011;67706;51.074;-1.796;2023-10-31T09:00:11;1.70;;;0.90;;
78410;SDS011;67706;51.074;-1.796;2023-10-31T09:02:39;7.57;;;1.30;;
78410;SDS011;67706;51.074;-1.796;2023-10-31T09:05:06;4.28;;;3.13;;
78410;SDS011;67706;51.074;-1.796;2023-10-31T09:07:33;3.03;;;1.70;;
78410;SDS011;67706;51.074;-1.796;2023-10-31T09:10:00;3.88;;;1.00;;
78410;SDS011;67706;51.074;-1.796;2023-10-31T09:12:27;2.03;;;0.95;;
78410;SDS011;67706;51.074;-1.796;2023-10-31T09:14:55;4.05;;;1.00;;
78410;SDS011;67706;51.074;-1.796;2023-10-31T09:17:21;5.03;;;1.60;;
78410;SDS011;67706;51.074;-1.796;2023-10-31T09:19:48;2.72;;;1.17;;
78410;SDS011;67706;51.074;-1.796;2023-10-31T09:22:14;4.40;;;1.60;;
78410;SDS011;67706;51.074;-1.796;2023-10-31T09:24:41;3.75;;;1.00;;
78410;SDS011;67706;51.074;-1.796;2023-10-31T09:27:09;2.97;;;0.80;;
78410;SDS011;67706;51.074;-1.796;2023-10-31T09:29:36;3.90;;;1.20;;
78410;SDS011;67706;51.074;-1.796;2023-10-31T09:32:05;1.92;;;0.95;;
78410;SDS011;67706;51.074;-1.796;2023-10-31T09:34:33;3.38;;;1.10;;
78410;SDS011;67706;51.074;-1.796;2023-10-31T09:36:59;4.57;;;1.67;;
78410;SDS011;67706;51.074;-1.796;2023-10-31T09:39:26;2.60;;;1.00;;
78410;SDS011;67706;51.074;-1.796;2023-10-31T09:41:53;5.40;;;0.93;;
78410;SDS011;67706;51.074;-1.796;2023-10-31T09:44:20;1.80;;;0.75;;
78410;SDS011;67706;51.074;-1.796;2023-10-31T09:46:47;1.55;;;0.68;;
78410;SDS011;67706;51.074;-1.796;2023-10-31T09:49:15;5.20;;;0.60;;
78410;SDS011;67706;51.074;-1.796;2023-10-31T09:51:42;2.88;;;0.80;;
78410;SDS011;67706;51.074;-1.796;2023-10-31T09:54:09;1.27;;;0.50;;
78410;SDS011;67706;51.074;-1.796;2023-10-31T09:56:40;1.63;;;0.55;;
78410;SDS011;67706;51.074;-1.796;2023-10-31T09:59:08;1.48;;;0.32;;
78410;SDS011;67706;51.074;-1.796;2023-10-31T10:01:35;5.65;;;0.98;;
78410;SDS011;67706;51.074;-1.796;2023-10-31T10:04:02;3.92;;;0.50;;
78410;SDS011;67706;51.074;-1.796;2023-10-31T10:06:31;3.40;;;0.50;;
78410;SDS011;67706;51.074;-1.796;2023-10-31T10:08:58;5.65;;;0.80;;
78410;SDS011;67706;51.074;-1.796;2023-10-31T10:11:27;2.10;;;0.60;;
78410;SDS011;67706;51.074;-1.796;2023-10-31T10:13:54;2.92;;;0.70;;
78410;SDS011;67706;51.074;-1.796;2023-10-31T10:16:29;2.03;;;0.60;;
78410;SDS011;67706;51.074;-1.796;2023-10-31T10:18:56;1.30;;;0.47;;
78410;SDS011;67706;51.074;-1.796;2023-10-31T10:21:23;1.77;;;0.43;;
78410;SDS011;67706;51.074;-1.796;2023-10-31T10:23:52;4.72;;;0.90;;
78410;SDS011;67706;51.074;-1.796;2023-10-31T10:26:19;4.47;;;0.45;;
78410;SDS011;67706;51.074;-1.796;2023-10-31T10:28:49;2.13;;;0.55;;
78410;SDS011;67706;51.074;-1.796;2023-10-31T10:31:15;1.95;;;0.50;;
78410;SDS011;67706;51.074;-1.796;2023-10-31T10:33:42;19.10;;;7.93;;
78410;SDS011;67706;51.074;-1.796;2023-10-31T10:36:09;2.92;;;0.70;;
78410;SDS011;67706;51.074;-1.796;2023-10-31T10:38:36;1.85;;;0.50;;
78410;SDS011;67706;51.074;-1.796;2023-10-31T10:41:07;4.07;;;0.47;;
78410;SDS011;67706;51.074;-1.796;2023-10-31T10:43:37;1.63;;;0.63;;
78410;SDS011;67706;51.074;-1.796;2023-10-31T10:46:04;4.65;;;0.65;;
78410;SDS011;67706;51.074;-1.796;2023-10-31T10:48:34;4.38;;;0.57;;
78410;SDS011;67706;51.074;-1.796;2023-10-31T10:51:06;3.05;;;0.60;;
78410;SDS011;67706;51.074;-1.796;2023-10-31T10:53:42;3.08;;;0.60;;
78410;SDS011;67706;51.074;-1.796;2023-10-31T10:56:19;1.80;;;0.50;;
78410;SDS011;67706;51.074;-1.796;2023-10-31T10:58:52;1.77;;;0.43;;
78410;SDS011;67706;51.074;-1.796;2023-10-31T11:01:25;2.83;;;0.50;;
78410;SDS011;67706;51.074;-1.796;2023-10-31T11:03:53;3.00;;;0.60;;
78410;SDS011;67706;51.074;-1.796;2023-10-31T11:06:21;2.20;;;0.30;;
78410;SDS011;67706;51.074;-1.796;2023-10-31T11:08:47;1.15;;;0.55;;
78410;SDS011;67706;51.074;-1.796;2023-10-31T11:11:19;1.80;;;0.45;;
78410;SDS011;67706;51.074;-1.796;2023-10-31T11:13:48;3.92;;;0.50;;
78410;SDS011;67706;51.074;-1.796;2023-10-31T11:16:18;1.10;;;0.43;;
78410;SDS011;67706;51.074;-1.796;2023-10-31T11:18:49;2.50;;;0.50;;
78410;SDS011;67706;51.074;-1.796;2023-10-31T11:21:16;2.85;;;0.50;;
78410;SDS011;67706;51.074;-1.796;2023-10-31T11:23:43;2.15;;;0.43;;
78410;SDS011;67706;51.074;-1.796;2023-10-31T11:26:09;5.15;;;0.60;;
78410;SDS011;67706;51.074;-1.796;2023-10-31T11:28:37;4.75;;;0.50;;
78410;SDS011;67706;51.074;-1.796;2023-10-31T11:31:04;4.07;;;0.63;;
78410;SDS011;67706;51.074;-1.796;2023-10-31T11:33:32;1.75;;;0.68;;
78410;SDS011;67706;51.074;-1.796;2023-10-31T11:35:59;2.95;;;0.65;;
78410;SDS011;67706;51.074;-1.796;2023-10-31T11:38:35;4.72;;;0.90;;
78410;SDS011;67706;51.074;-1.796;2023-10-31T11:41:03;2.10;;;0.65;;
78410;SDS011;67706;51.074;-1.796;2023-10-31T11:43:39;4.70;;;1.13;;
78410;SDS011;67706;51.074;-1.796;2023-10-31T11:46:20;4.50;;;0.65;;
78410;SDS011;67706;51.074;-1.796;2023-10-31T11:48:50;2.22;;;0.65;;
78410;SDS011;67706;51.074;-1.796;2023-10-31T11:51:18;5.53;;;0.82;;
78410;SDS011;67706;51.074;-1.796;2023-10-31T11:53:45;3.20;;;0.60;;
78410;SDS011;67706;51.074;-1.796;2023-10-31T11:56:12;3.97;;;0.70;;
78410;SDS011;67706;51.074;-1.796;2023-10-31T11:58:40;4.30;;;0.68;;
78410;SDS011;67706;51.074;-1.796;2023-10-31T12:01:07;6.13;;;1.10;;
78410;SDS011;67706;51.074;-1.796;2023-10-31T12:03:38;2.08;;;0.93;;
78410;SDS011;67706;51.074;-1.796;2023-10-31T12:06:06;2.67;;;0.82;;
78410;SDS011;67706;51.074;-1.796;2023-10-31T12:08:33;5.30;;;0.60;;
78410;SDS011;67706;51.074;-1.796;2023-10-31T12:11:05;3.40;;;0.50;;
78410;SDS011;67706;51.074;-1.796;2023-10-31T12:13:34;1.02;;;0.47;;
78410;SDS011;67706;51.074;-1.796;2023-10-31T12:16:03;4.78;;;0.82;;
78410;SDS011;67706;51.074;-1.796;2023-10-31T12:18:31;4.13;;;0.70;;
78410;SDS011;67706;51.074;-1.796;2023-10-31T12:20:57;3.30;;;0.77;;
78410;SDS011;67706;51.074;-1.796;2023-10-31T12:23:24;8.07;;;0.80;;
78410;SDS011;67706;51.074;-1.796;2023-10-31T12:25:50;3.60;;;0.70;;
78410;SDS011;67706;51.074;-1.796;2023-10-31T12:28:18;12.13;;;1.10;;
78410;SDS011;67706;51.074;-1.796;2023-10-31T12:30:45;2.38;;;0.82;;
78410;SDS011;67706;51.074;-1.796;2023-10-31T12:33:14;2.80;;;0.93;;
78410;SDS011;67706;51.074;-1.796;2023-10-31T12:35:41;3.83;;;0.60;;
78410;SDS011;67706;51.074;-1.796;2023-10-31T12:38:09;7.72;;;1.10;;
78410;SDS011;67706;51.074;-1.796;2023-10-31T12:40:38;4.00;;;0.60;;
78410;SDS011;67706;51.074;-1.796;2023-10-31T12:43:07;3.90;;;0.93;;
78410;SDS011;67706;51.074;-1.796;2023-10-31T12:45:35;3.10;;;0.80;;
78410;SDS011;67706;51.074;-1.796;2023-10-31T12:48:02;6.15;;;0.93;;
78410;SDS011;67706;51.074;-1.796;2023-10-31T12:50:31;7.13;;;1.45;;
78410;SDS011;67706;51.074;-1.796;2023-10-31T12:52:59;3.45;;;0.70;;
78410;SDS011;67706;51.074;-1.796;2023-10-31T12:55:28;9.27;;;1.17;;
78410;SDS011;67706;51.074;-1.796;2023-10-31T12:57:56;7.00;;;0.80;;
78410;SDS011;67706;51.074;-1.796;2023-10-31T13:00:30;8.07;;;1.30;;
78410;SDS011;67706;51.074;-1.796;2023-10-31T13:02:58;2.15;;;0.90;;
78410;SDS011;67706;51.074;-1.796;2023-10-31T13:05:27;4.68;;;1.27;;
78410;SDS011;67706;51.074;-1.796;2023-10-31T13:07:56;8.10;;;1.00;;
78410;SDS011;67706;51.074;-1.796;2023-10-31T13:10:25;2.80;;;0.90;;
78410;SDS011;67706;51.074;-1.796;2023-10-31T13:12:53;5.63;;;1.10;;
78410;SDS011;67706;51.074;-1.796;2023-10-31T13:15:21;3.88;;;0.98;;
78410;SDS011;67706;51.074;-1.796;2023-10-31T13:17:49;3.53;;;1.00;;
78410;SDS011;67706;51.074;-1.796;2023-10-31T13:20:18;3.38;;;0.63;;
78410;SDS011;67706;51.074;-1.796;2023-10-31T13:22:46;3.47;;;0.80;;
78410;SDS011;67706;51.074;-1.796;2023-10-31T13:25:15;4.35;;;0.80;;
78410;SDS011;67706;51.074;-1.796;2023-10-31T13:27:43;4.45;;;0.70;;
78410;SDS011;67706;51.074;-1.796;2023-10-31T13:30:15;3.22;;;1.20;;
78410;SDS011;67706;51.074;-1.796;2023-10-31T13:32:43;5.65;;;0.80;;
78410;SDS011;67706;51.074;-1.796;2023-10-31T13:35:11;7.03;;;0.55;;
78410;SDS011;67706;51.074;-1.796;2023-10-31T13:37:39;5.15;;;0.95;;
78410;SDS011;67706;51.074;-1.796;2023-10-31T13:40:06;2.65;;;0.70;;
78410;SDS011;67706;51.074;-1.796;2023-10-31T13:42:35;4.03;;;0.88;;
78410;SDS011;67706;51.074;-1.796;2023-10-31T13:45:02;4.55;;;0.85;;
78410;SDS011;67706;51.074;-1.796;2023-10-31T13:47:30;10.55;;;1.63;;
78410;SDS011;67706;51.074;-1.796;2023-10-31T13:49:56;8.20;;;1.00;;
78410;SDS011;67706;51.074;-1.796;2023-10-31T13:52:24;5.32;;;1.50;;
78410;SDS011;67706;51.074;-1.796;2023-10-31T13:54:50;7.32;;;1.65;;
78410;SDS011;67706;51.074;-1.796;2023-10-31T13:57:17;5.97;;;1.13;;
78410;SDS011;67706;51.074;-1.796;2023-10-31T13:59:45;6.20;;;1.17;;
78410;SDS011;67706;51.074;-1.796;2023-10-31T14:02:12;13.38;;;1.52;;
78410;SDS011;67706;51.074;-1.796;2023-10-31T14:04:39;5.13;;;1.05;;
78410;SDS011;67706;51.074;-1.796;2023-10-31T14:07:06;5.15;;;1.15;;
78410;SDS011;67706;51.074;-1.796;2023-10-31T14:09:32;8.80;;;1.58;;
78410;SDS011;67706;51.074;-1.796;2023-10-31T14:11:59;7.72;;;1.50;;
78410;SDS011;67706;51.074;-1.796;2023-10-31T14:14:26;6.07;;;1.50;;
78410;SDS011;67706;51.074;-1.796;2023-10-31T14:16:54;9.75;;;1.50;;
78410;SDS011;67706;51.074;-1.796;2023-10-31T14:19:20;5.50;;;1.38;;
78410;SDS011;67706;51.074;-1.796;2023-10-31T14:21:47;8.77;;;1.42;;
78410;SDS011;67706;51.074;-1.796;2023-10-31T14:24:14;6.13;;;1.02;;
78410;SDS011;67706;51.074;-1.796;2023-10-31T14:26:41;6.65;;;1.20;;
78410;SDS011;67706;51.074;-1.796;2023-10-31T14:29:08;6.80;;;1.25;;
78410;SDS011;67706;51.074;-1.796;2023-10-31T14:31:38;6.03;;;1.10;;
78410;SDS011;67706;51.074;-1.796;2023-10-31T14:34:07;4.20;;;1.02;;
78410;SDS011;67706;51.074;-1.796;2023-10-31T14:36:34;6.50;;;0.90;;
78410;SDS011;67706;51.074;-1.796;2023-10-31T14:39:01;9.30;;;1.38;;
78410;SDS011;67706;51.074;-1.796;2023-10-31T14:41:30;8.55;;;1.10;;
78410;SDS011;67706;51.074;-1.796;2023-10-31T14:43:58;4.35;;;1.35;;
78410;SDS011;67706;51.074;-1.796;2023-10-31T14:46:25;6.30;;;0.98;;
78410;SDS011;67706;51.074;-1.796;2023-10-31T14:48:52;5.22;;;1.02;;
78410;SDS011;67706;51.074;-1.796;2023-10-31T14:51:20;9.05;;;1.13;;
78410;SDS011;67706;51.074;-1.796;2023-10-31T14:53:47;7.15;;;1.45;;
78410;SDS011;67706;51.074;-1.796;2023-10-31T14:56:14;9.15;;;1.95;;
78410;SDS011;67706;51.074;-1.796;2023-10-31T14:58:40;11.38;;;1.33;;
78410;SDS011;67706;51.074;-1.796;2023-10-31T15:01:07;8.82;;;1.20;;
78410;SDS011;67706;51.074;-1.796;2023-10-31T15:03:34;5.82;;;1.00;;
78410;SDS011;67706;51.074;-1.796;2023-10-31T15:06:01;4.32;;;1.23;;